This is the latest recevied weather packets stored in our database for station/object AD4WX-13. If no packets are shown the sender has not sent any weather packets the latest 10 day(s).
| Time | Temp. | Humidity | Pressure | Rain* | Wind** | Luminosity | Snow |
|---|---|---|---|---|---|---|---|
| 1777621569 | 10° C | 91% | 1013 hPa | 0 mm | - | 0 W/m² | - |
| 1777617185 | 10° C | 91% | 1013.5 hPa | 0 mm | - | 0 W/m² | - |
| 1777612803 | 10° C | 91% | 1013.9 hPa | 0 mm | - | 0 W/m² | - |
| 1777610974 | 10° C | 90% | 1014.2 hPa | 0 mm | - | 0 W/m² | - |
| 1777610398 | 10° C | 90% | 1014 hPa | 0 mm | - | 0 W/m² | - |
| 1777606086 | 10° C | 89% | 1014.4 hPa | 0 mm | - | 0 W/m² | - |
| 1777601228 | 11.11° C | 85% | 1014.2 hPa | 0 mm | - | 0 W/m² | - |
| 1777597452 | 12.78° C | 77% | 1013 hPa | 0 mm | - | 0 W/m² | - |
| 1777596230 | 13.89° C | 73% | 1012.7 hPa | 0 mm | - | 0 W/m² | - |
| 1777595627 | 14.44° C | 72% | 1012.5 hPa | 0 mm | - | 0 W/m² | - |
| 1777589561 | 17.22° C | 49% | 1013.3 hPa | 0 mm | - | 132 W/m² | - |
| 1777584522 | 17.22° C | 44% | 1013.2 hPa | 0 mm | - | 427 W/m² | - |
| 1777583923 | 17.78° C | 45% | 1013.3 hPa | 0 mm | - | 429 W/m² | - |
| 1777580102 | 17.78° C | 43% | 1014.2 hPa | 0 mm | - | 520 W/m² | - |
| 1777579513 | 17.78° C | 46% | 1014.3 hPa | 0 mm | - | 489 W/m² | - |
| 1777576545 | 17.78° C | 42% | 1014.5 hPa | 0 mm | - | 503 W/m² | - |
| 1777567929 | 18.33° C | 42% | 1015.6 hPa | 0 mm | - | 1056 W/m² | - |
| 1777556177 | 14.44° C | 61% | 1015.6 hPa | 0 mm | - | 461 W/m² | - |
| 1777553717 | 13.89° C | 65% | 1015.4 hPa | 0 mm | - | 336 W/m² | - |
| 1777551896 | 11.67° C | 78% | 1015.4 hPa | 0 mm | - | 200 W/m² | - |
| 1777549974 | 9.44° C | 83% | 1015 hPa | 0 mm | - | 33 W/m² | - |
| 1777549385 | 8.89° C | 84% | 1014.7 hPa | 0 mm | - | 28 W/m² | - |
| 1777548767 | 8.89° C | 85% | 1014.5 hPa | 0 mm | - | 23 W/m² | - |
| 1777544947 | 10.56° C | 77% | 1013.9 hPa | 0 mm | - | 0 W/m² | - |
| 1777540523 | 11.11° C | 79% | 1013.5 hPa | 0 mm | - | 0 W/m² | - |
* Rain latest hour (hover to see other rain measurements)
** Current wind speed in m/s (hover to see current wind gust speed)